sensor_id;sensor_type;location;lat;lon;timestamp;P1;durP1;ratioP1;P2;durP2;ratioP2
9712;SDS011;4895;50.926;6.870;2022-10-16T00:01:21;4.53;;;2.57;;
9712;SDS011;4895;50.926;6.870;2022-10-16T00:03:48;3.83;;;2.17;;
9712;SDS011;4895;50.926;6.870;2022-10-16T00:06:14;5.60;;;2.20;;
9712;SDS011;4895;50.926;6.870;2022-10-16T00:08:40;3.03;;;2.27;;
9712;SDS011;4895;50.926;6.870;2022-10-16T00:11:07;2.73;;;2.00;;
9712;SDS011;4895;50.926;6.870;2022-10-16T00:13:43;5.00;;;2.50;;
9712;SDS011;4895;50.926;6.870;2022-10-16T00:16:10;2.77;;;1.80;;
9712;SDS011;4895;50.926;6.870;2022-10-16T00:18:37;3.30;;;2.13;;
9712;SDS011;4895;50.926;6.870;2022-10-16T00:21:03;3.03;;;2.00;;
9712;SDS011;4895;50.926;6.870;2022-10-16T00:23:30;3.27;;;2.37;;
9712;SDS011;4895;50.926;6.870;2022-10-16T00:26:00;3.50;;;2.20;;
9712;SDS011;4895;50.926;6.870;2022-10-16T00:28:30;2.47;;;1.73;;
9712;SDS011;4895;50.926;6.870;2022-10-16T00:30:55;2.70;;;2.10;;
9712;SDS011;4895;50.926;6.870;2022-10-16T00:33:21;3.23;;;2.30;;
9712;SDS011;4895;50.926;6.870;2022-10-16T00:35:47;3.70;;;2.10;;
9712;SDS011;4895;50.926;6.870;2022-10-16T00:38:12;6.07;;;2.60;;
9712;SDS011;4895;50.926;6.870;2022-10-16T00:40:38;7.43;;;2.73;;
9712;SDS011;4895;50.926;6.870;2022-10-16T00:43:07;4.93;;;2.37;;
9712;SDS011;4895;50.926;6.870;2022-10-16T00:45:37;4.13;;;2.47;;
9712;SDS011;4895;50.926;6.870;2022-10-16T00:48:02;3.33;;;2.03;;
9712;SDS011;4895;50.926;6.870;2022-10-16T00:50:31;4.40;;;1.93;;
9712;SDS011;4895;50.926;6.870;2022-10-16T00:52:58;5.77;;;2.53;;
9712;SDS011;4895;50.926;6.870;2022-10-16T00:55:26;4.30;;;2.30;;
9712;SDS011;4895;50.926;6.870;2022-10-16T00:57:52;6.07;;;2.90;;
9712;SDS011;4895;50.926;6.870;2022-10-16T01:00:19;7.20;;;2.93;;
9712;SDS011;4895;50.926;6.870;2022-10-16T01:02:53;5.17;;;2.60;;
9712;SDS011;4895;50.926;6.870;2022-10-16T01:05:21;6.00;;;2.53;;
9712;SDS011;4895;50.926;6.870;2022-10-16T01:07:59;5.73;;;2.50;;
9712;SDS011;4895;50.926;6.870;2022-10-16T01:10:35;2.73;;;2.10;;
9712;SDS011;4895;50.926;6.870;2022-10-16T01:13:06;5.30;;;2.60;;
9712;SDS011;4895;50.926;6.870;2022-10-16T01:15:59;2.73;;;2.00;;
9712;SDS011;4895;50.926;6.870;2022-10-16T01:18:49;4.00;;;2.00;;
9712;SDS011;4895;50.926;6.870;2022-10-16T01:21:24;3.13;;;1.90;;
9712;SDS011;4895;50.926;6.870;2022-10-16T01:26:43;1.83;;;1.63;;
9712;SDS011;4895;50.926;6.870;2022-10-16T01:29:25;3.20;;;1.80;;
9712;SDS011;4895;50.926;6.870;2022-10-16T01:32:01;15.00;;;2.63;;
9712;SDS011;4895;50.926;6.870;2022-10-16T01:35:02;4.20;;;2.00;;
9712;SDS011;4895;50.926;6.870;2022-10-16T01:40:02;2.10;;;1.70;;
9712;SDS011;4895;50.926;6.870;2022-10-16T01:42:34;4.53;;;1.93;;
9712;SDS011;4895;50.926;6.870;2022-10-16T01:45:00;2.77;;;2.23;;
9712;SDS011;4895;50.926;6.870;2022-10-16T01:47:26;3.37;;;2.00;;
9712;SDS011;4895;50.926;6.870;2022-10-16T01:49:52;4.43;;;2.20;;
9712;SDS011;4895;50.926;6.870;2022-10-16T01:52:20;3.30;;;2.10;;
9712;SDS011;4895;50.926;6.870;2022-10-16T01:54:49;2.73;;;2.13;;
9712;SDS011;4895;50.926;6.870;2022-10-16T01:57:16;6.03;;;2.40;;
9712;SDS011;4895;50.926;6.870;2022-10-16T01:59:44;2.50;;;1.93;;
9712;SDS011;4895;50.926;6.870;2022-10-16T02:02:11;5.20;;;2.60;;
9712;SDS011;4895;50.926;6.870;2022-10-16T02:04:39;3.90;;;2.67;;
9712;SDS011;4895;50.926;6.870;2022-10-16T02:07:08;6.10;;;2.77;;
9712;SDS011;4895;50.926;6.870;2022-10-16T02:09:33;10.10;;;2.80;;
9712;SDS011;4895;50.926;6.870;2022-10-16T02:12:00;3.23;;;2.03;;
9712;SDS011;4895;50.926;6.870;2022-10-16T02:14:30;5.77;;;2.80;;
9712;SDS011;4895;50.926;6.870;2022-10-16T02:16:55;4.10;;;2.30;;
9712;SDS011;4895;50.926;6.870;2022-10-16T02:19:21;2.70;;;2.10;;
9712;SDS011;4895;50.926;6.870;2022-10-16T02:21:48;7.00;;;2.50;;
9712;SDS011;4895;50.926;6.870;2022-10-16T02:24:19;2.97;;;2.20;;
9712;SDS011;4895;50.926;6.870;2022-10-16T02:26:51;3.13;;;2.10;;
9712;SDS011;4895;50.926;6.870;2022-10-16T02:29:20;5.73;;;2.60;;
9712;SDS011;4895;50.926;6.870;2022-10-16T02:31:50;2.77;;;2.10;;
9712;SDS011;4895;50.926;6.870;2022-10-16T02:34:17;3.50;;;2.13;;
9712;SDS011;4895;50.926;6.870;2022-10-16T02:36:43;6.30;;;2.20;;
9712;SDS011;4895;50.926;6.870;2022-10-16T02:39:09;3.43;;;1.90;;
9712;SDS011;4895;50.926;6.870;2022-10-16T02:41:35;4.83;;;2.20;;
9712;SDS011;4895;50.926;6.870;2022-10-16T02:44:01;3.40;;;1.80;;
9712;SDS011;4895;50.926;6.870;2022-10-16T02:46:26;2.90;;;1.80;;
9712;SDS011;4895;50.926;6.870;2022-10-16T02:48:51;2.33;;;1.80;;
9712;SDS011;4895;50.926;6.870;2022-10-16T02:51:16;3.60;;;2.00;;
9712;SDS011;4895;50.926;6.870;2022-10-16T02:53:42;2.63;;;1.57;;
9712;SDS011;4895;50.926;6.870;2022-10-16T02:56:07;10.50;;;2.40;;
9712;SDS011;4895;50.926;6.870;2022-10-16T02:58:32;3.30;;;1.20;;
9712;SDS011;4895;50.926;6.870;2022-10-16T03:00:58;3.90;;;1.67;;
9712;SDS011;4895;50.926;6.870;2022-10-16T03:03:23;2.00;;;1.50;;
9712;SDS011;4895;50.926;6.870;2022-10-16T03:05:48;2.47;;;1.53;;
9712;SDS011;4895;50.926;6.870;2022-10-16T03:08:14;3.90;;;1.70;;
9712;SDS011;4895;50.926;6.870;2022-10-16T03:10:39;3.80;;;2.00;;
9712;SDS011;4895;50.926;6.870;2022-10-16T03:13:04;4.03;;;1.80;;
9712;SDS011;4895;50.926;6.870;2022-10-16T03:15:30;1.87;;;1.57;;
9712;SDS011;4895;50.926;6.870;2022-10-16T03:17:58;6.50;;;1.60;;
9712;SDS011;4895;50.926;6.870;2022-10-16T03:20:24;5.83;;;2.10;;
9712;SDS011;4895;50.926;6.870;2022-10-16T03:22:50;2.20;;;1.40;;
9712;SDS011;4895;50.926;6.870;2022-10-16T03:25:15;3.50;;;1.77;;
9712;SDS011;4895;50.926;6.870;2022-10-16T03:27:41;2.33;;;1.80;;
9712;SDS011;4895;50.926;6.870;2022-10-16T03:30:06;3.20;;;1.60;;
9712;SDS011;4895;50.926;6.870;2022-10-16T03:32:32;4.50;;;1.80;;
9712;SDS011;4895;50.926;6.870;2022-10-16T03:34:57;3.40;;;1.90;;
9712;SDS011;4895;50.926;6.870;2022-10-16T03:37:23;5.27;;;2.00;;
9712;SDS011;4895;50.926;6.870;2022-10-16T03:39:48;2.40;;;1.83;;
9712;SDS011;4895;50.926;6.870;2022-10-16T03:42:13;3.00;;;1.33;;
9712;SDS011;4895;50.926;6.870;2022-10-16T03:44:38;2.80;;;1.40;;
9712;SDS011;4895;50.926;6.870;2022-10-16T03:47:04;4.23;;;1.60;;
9712;SDS011;4895;50.926;6.870;2022-10-16T03:49:29;4.07;;;1.60;;
9712;SDS011;4895;50.926;6.870;2022-10-16T03:51:54;3.60;;;1.50;;
9712;SDS011;4895;50.926;6.870;2022-10-16T03:54:20;2.50;;;1.70;;
9712;SDS011;4895;50.926;6.870;2022-10-16T03:56:47;5.10;;;1.87;;
9712;SDS011;4895;50.926;6.870;2022-10-16T03:59:12;2.03;;;1.70;;
9712;SDS011;4895;50.926;6.870;2022-10-16T04:01:37;4.57;;;1.90;;
9712;SDS011;4895;50.926;6.870;2022-10-16T04:04:03;7.07;;;1.70;;
9712;SDS011;4895;50.926;6.870;2022-10-16T04:06:28;2.57;;;2.00;;
9712;SDS011;4895;50.926;6.870;2022-10-16T04:08:53;2.90;;;1.90;;
9712;SDS011;4895;50.926;6.870;2022-10-16T04:11:18;3.07;;;1.70;;
9712;SDS011;4895;50.926;6.870;2022-10-16T04:13:44;2.80;;;1.73;;
9712;SDS011;4895;50.926;6.870;2022-10-16T04:16:09;4.37;;;2.00;;
9712;SDS011;4895;50.926;6.870;2022-10-16T04:18:34;3.60;;;1.90;;
9712;SDS011;4895;50.926;6.870;2022-10-16T04:21:06;2.63;;;1.67;;
9712;SDS011;4895;50.926;6.870;2022-10-16T04:23:31;5.43;;;1.70;;
9712;SDS011;4895;50.926;6.870;2022-10-16T04:25:57;3.40;;;1.53;;
9712;SDS011;4895;50.926;6.870;2022-10-16T04:28:22;4.37;;;1.90;;
9712;SDS011;4895;50.926;6.870;2022-10-16T04:30:47;3.90;;;1.90;;
9712;SDS011;4895;50.926;6.870;2022-10-16T04:33:13;3.60;;;2.00;;
9712;SDS011;4895;50.926;6.870;2022-10-16T04:35:38;4.63;;;1.70;;
9712;SDS011;4895;50.926;6.870;2022-10-16T04:38:03;2.50;;;1.70;;
9712;SDS011;4895;50.926;6.870;2022-10-16T04:40:29;1.90;;;1.40;;
9712;SDS011;4895;50.926;6.870;2022-10-16T04:42:57;2.17;;;1.40;;
9712;SDS011;4895;50.926;6.870;2022-10-16T04:45:23;8.87;;;1.83;;
9712;SDS011;4895;50.926;6.870;2022-10-16T04:47:48;3.27;;;1.37;;
9712;SDS011;4895;50.926;6.870;2022-10-16T04:50:13;5.40;;;1.70;;
9712;SDS011;4895;50.926;6.870;2022-10-16T04:52:39;3.23;;;1.50;;
9712;SDS011;4895;50.926;6.870;2022-10-16T04:55:04;1.63;;;1.30;;
9712;SDS011;4895;50.926;6.870;2022-10-16T04:57:30;6.20;;;1.37;;
9712;SDS011;4895;50.926;6.870;2022-10-16T04:59:55;2.90;;;1.60;;
9712;SDS011;4895;50.926;6.870;2022-10-16T05:02:21;8.60;;;1.67;;
9712;SDS011;4895;50.926;6.870;2022-10-16T05:04:46;2.10;;;1.23;;
9712;SDS011;4895;50.926;6.870;2022-10-16T05:07:11;2.47;;;1.40;;
9712;SDS011;4895;50.926;6.870;2022-10-16T05:09:37;3.30;;;1.70;;
9712;SDS011;4895;50.926;6.870;2022-10-16T05:12:02;4.97;;;1.70;;
9712;SDS011;4895;50.926;6.870;2022-10-16T05:14:28;4.27;;;1.70;;
9712;SDS011;4895;50.926;6.870;2022-10-16T05:16:54;3.23;;;1.80;;
9712;SDS011;4895;50.926;6.870;2022-10-16T05:19:19;2.83;;;2.10;;
9712;SDS011;4895;50.926;6.870;2022-10-16T05:21:44;2.33;;;1.70;;
9712;SDS011;4895;50.926;6.870;2022-10-16T05:24:10;6.63;;;1.93;;
9712;SDS011;4895;50.926;6.870;2022-10-16T05:26:35;2.40;;;1.60;;
9712;SDS011;4895;50.926;6.870;2022-10-16T05:29:00;6.00;;;2.20;;
9712;SDS011;4895;50.926;6.870;2022-10-16T05:31:26;5.70;;;1.87;;
9712;SDS011;4895;50.926;6.870;2022-10-16T05:33:51;2.43;;;1.70;;
9712;SDS011;4895;50.926;6.870;2022-10-16T05:36:16;1.87;;;1.60;;
9712;SDS011;4895;50.926;6.870;2022-10-16T05:38:43;4.20;;;1.70;;
9712;SDS011;4895;50.926;6.870;2022-10-16T05:41:08;2.90;;;1.80;;
9712;SDS011;4895;50.926;6.870;2022-10-16T05:43:34;4.00;;;1.80;;
9712;SDS011;4895;50.926;6.870;2022-10-16T05:46:00;2.57;;;2.00;;
9712;SDS011;4895;50.926;6.870;2022-10-16T05:48:26;3.67;;;1.67;;
9712;SDS011;4895;50.926;6.870;2022-10-16T05:50:58;4.07;;;1.83;;
9712;SDS011;4895;50.926;6.870;2022-10-16T05:53:24;2.40;;;1.80;;
9712;SDS011;4895;50.926;6.870;2022-10-16T05:55:53;9.00;;;1.90;;
9712;SDS011;4895;50.926;6.870;2022-10-16T05:58:20;3.53;;;1.83;;
9712;SDS011;4895;50.926;6.870;2022-10-16T06:00:52;4.03;;;1.93;;
9712;SDS011;4895;50.926;6.870;2022-10-16T06:03:18;7.33;;;1.83;;
9712;SDS011;4895;50.926;6.870;2022-10-16T06:05:43;6.37;;;1.50;;
9712;SDS011;4895;50.926;6.870;2022-10-16T06:08:08;2.67;;;2.00;;
9712;SDS011;4895;50.926;6.870;2022-10-16T06:10:34;5.30;;;1.80;;
9712;SDS011;4895;50.926;6.870;2022-10-16T06:12:59;4.07;;;2.00;;
9712;SDS011;4895;50.926;6.870;2022-10-16T06:15:25;5.10;;;2.70;;
9712;SDS011;4895;50.926;6.870;2022-10-16T06:17:50;4.93;;;2.27;;
9712;SDS011;4895;50.926;6.870;2022-10-16T06:20:15;6.00;;;2.60;;
9712;SDS011;4895;50.926;6.870;2022-10-16T06:22:40;3.17;;;2.20;;
9712;SDS011;4895;50.926;6.870;2022-10-16T06:25:06;7.57;;;2.77;;
9712;SDS011;4895;50.926;6.870;2022-10-16T06:27:31;6.00;;;2.27;;
9712;SDS011;4895;50.926;6.870;2022-10-16T06:29:57;4.20;;;2.23;;
9712;SDS011;4895;50.926;6.870;2022-10-16T06:32:22;3.00;;;2.10;;
9712;SDS011;4895;50.926;6.870;2022-10-16T06:34:47;3.20;;;1.90;;
9712;SDS011;4895;50.926;6.870;2022-10-16T06:37:13;2.50;;;2.20;;
9712;SDS011;4895;50.926;6.870;2022-10-16T06:39:38;3.93;;;2.30;;
9712;SDS011;4895;50.926;6.870;2022-10-16T06:42:04;2.50;;;2.13;;
9712;SDS011;4895;50.926;6.870;2022-10-16T06:44:29;3.63;;;2.07;;
9712;SDS011;4895;50.926;6.870;2022-10-16T06:46:54;4.40;;;2.00;;
9712;SDS011;4895;50.926;6.870;2022-10-16T06:49:19;5.13;;;2.13;;
9712;SDS011;4895;50.926;6.870;2022-10-16T06:51:47;5.10;;;2.73;;
9712;SDS011;4895;50.926;6.870;2022-10-16T06:54:14;5.57;;;2.60;;
9712;SDS011;4895;50.926;6.870;2022-10-16T06:56:40;2.80;;;2.27;;
9712;SDS011;4895;50.926;6.870;2022-10-16T06:59:05;6.27;;;2.33;;
9712;SDS011;4895;50.926;6.870;2022-10-16T07:01:30;9.20;;;2.73;;
9712;SDS011;4895;50.926;6.870;2022-10-16T07:03:56;6.83;;;2.73;;
9712;SDS011;4895;50.926;6.870;2022-10-16T07:06:22;7.77;;;2.50;;
9712;SDS011;4895;50.926;6.870;2022-10-16T07:08:48;4.70;;;2.67;;
9712;SDS011;4895;50.926;6.870;2022-10-16T07:11:18;2.93;;;2.47;;
9712;SDS011;4895;50.926;6.870;2022-10-16T07:13:45;3.60;;;2.40;;
9712;SDS011;4895;50.926;6.870;2022-10-16T07:16:16;3.77;;;2.33;;
9712;SDS011;4895;50.926;6.870;2022-10-16T07:18:43;3.70;;;2.40;;
9712;SDS011;4895;50.926;6.870;2022-10-16T07:21:11;7.30;;;2.70;;
9712;SDS011;4895;50.926;6.870;2022-10-16T07:23:38;5.13;;;2.30;;
9712;SDS011;4895;50.926;6.870;2022-10-16T07:26:04;3.00;;;1.90;;
9712;SDS011;4895;50.926;6.870;2022-10-16T07:28:30;2.87;;;1.80;;
9712;SDS011;4895;50.926;6.870;2022-10-16T07:30:59;3.20;;;2.07;;
9712;SDS011;4895;50.926;6.870;2022-10-16T07:33:29;3.47;;;2.03;;
9712;SDS011;4895;50.926;6.870;2022-10-16T07:35:55;8.17;;;2.20;;
9712;SDS011;4895;50.926;6.870;2022-10-16T07:38:21;3.20;;;2.13;;
9712;SDS011;4895;50.926;6.870;2022-10-16T07:40:46;3.17;;;1.97;;
9712;SDS011;4895;50.926;6.870;2022-10-16T07:43:12;3.10;;;2.23;;
9712;SDS011;4895;50.926;6.870;2022-10-16T07:45:46;3.97;;;2.53;;
9712;SDS011;4895;50.926;6.870;2022-10-16T07:48:13;2.90;;;2.00;;
9712;SDS011;4895;50.926;6.870;2022-10-16T07:50:38;2.70;;;1.97;;
9712;SDS011;4895;50.926;6.870;2022-10-16T07:53:03;3.90;;;1.83;;
9712;SDS011;4895;50.926;6.870;2022-10-16T07:55:29;3.53;;;2.13;;
9712;SDS011;4895;50.926;6.870;2022-10-16T07:57:54;3.53;;;2.53;;
9712;SDS011;4895;50.926;6.870;2022-10-16T08:00:20;6.90;;;1.70;;
9712;SDS011;4895;50.926;6.870;2022-10-16T08:02:45;3.67;;;1.80;;
9712;SDS011;4895;50.926;6.870;2022-10-16T08:05:10;2.53;;;2.00;;
9712;SDS011;4895;50.926;6.870;2022-10-16T08:07:35;5.80;;;2.00;;
9712;SDS011;4895;50.926;6.870;2022-10-16T08:10:01;3.73;;;1.93;;
9712;SDS011;4895;50.926;6.870;2022-10-16T08:12:26;3.27;;;1.80;;
9712;SDS011;4895;50.926;6.870;2022-10-16T08:14:51;2.50;;;1.73;;
9712;SDS011;4895;50.926;6.870;2022-10-16T08:17:17;4.87;;;1.77;;
9712;SDS011;4895;50.926;6.870;2022-10-16T08:19:45;5.43;;;1.77;;
9712;SDS011;4895;50.926;6.870;2022-10-16T08:22:12;2.83;;;1.90;;
9712;SDS011;4895;50.926;6.870;2022-10-16T08:24:37;2.43;;;1.50;;
9712;SDS011;4895;50.926;6.870;2022-10-16T08:27:02;2.27;;;1.77;;
9712;SDS011;4895;50.926;6.870;2022-10-16T08:29:28;2.93;;;1.67;;
9712;SDS011;4895;50.926;6.870;2022-10-16T08:31:54;4.60;;;1.77;;
9712;SDS011;4895;50.926;6.870;2022-10-16T08:34:19;6.00;;;2.00;;
9712;SDS011;4895;50.926;6.870;2022-10-16T08:36:44;2.70;;;1.70;;
9712;SDS011;4895;50.926;6.870;2022-10-16T08:39:10;2.70;;;1.47;;
9712;SDS011;4895;50.926;6.870;2022-10-16T08:47:13;3.60;;;1.70;;
9712;SDS011;4895;50.926;6.870;2022-10-16T08:49:43;1.93;;;1.30;;
9712;SDS011;4895;50.926;6.870;2022-10-16T08:52:16;3.20;;;1.20;;
9712;SDS011;4895;50.926;6.870;2022-10-16T08:54:42;3.10;;;1.10;;
9712;SDS011;4895;50.926;6.870;2022-10-16T08:57:11;3.20;;;0.90;;
9712;SDS011;4895;50.926;6.870;2022-10-16T08:59:39;2.77;;;1.20;;
9712;SDS011;4895;50.926;6.870;2022-10-16T09:02:15;2.20;;;1.00;;
9712;SDS011;4895;50.926;6.870;2022-10-16T09:04:48;2.30;;;1.13;;
9712;SDS011;4895;50.926;6.870;2022-10-16T09:12:31;2.67;;;1.17;;
9712;SDS011;4895;50.926;6.870;2022-10-16T09:15:02;2.30;;;1.07;;
9712;SDS011;4895;50.926;6.870;2022-10-16T09:18:12;3.27;;;0.80;;
9712;SDS011;4895;50.926;6.870;2022-10-16T09:23:28;4.80;;;1.10;;
9712;SDS011;4895;50.926;6.870;2022-10-16T09:25:55;1.50;;;0.70;;
9712;SDS011;4895;50.926;6.870;2022-10-16T09:28:21;1.70;;;1.00;;
9712;SDS011;4895;50.926;6.870;2022-10-16T09:30:46;2.70;;;1.00;;
9712;SDS011;4895;50.926;6.870;2022-10-16T09:33:14;1.80;;;1.00;;
9712;SDS011;4895;50.926;6.870;2022-10-16T09:38:06;2.03;;;1.00;;
9712;SDS011;4895;50.926;6.870;2022-10-16T09:46:00;4.17;;;1.37;;
9712;SDS011;4895;50.926;6.870;2022-10-16T09:48:28;1.70;;;1.00;;
9712;SDS011;4895;50.926;6.870;2022-10-16T09:50:57;4.80;;;0.90;;
9712;SDS011;4895;50.926;6.870;2022-10-16T09:53:24;2.43;;;1.13;;
9712;SDS011;4895;50.926;6.870;2022-10-16T09:55:52;2.60;;;0.90;;
9712;SDS011;4895;50.926;6.870;2022-10-16T09:58:21;5.03;;;0.90;;
9712;SDS011;4895;50.926;6.870;2022-10-16T10:00:53;3.20;;;1.00;;
9712;SDS011;4895;50.926;6.870;2022-10-16T10:03:36;1.97;;;0.83;;
9712;SDS011;4895;50.926;6.870;2022-10-16T10:06:14;3.37;;;0.80;;
9712;SDS011;4895;50.926;6.870;2022-10-16T10:08:41;3.87;;;0.90;;
9712;SDS011;4895;50.926;6.870;2022-10-16T10:11:17;3.03;;;1.33;;
9712;SDS011;4895;50.926;6.870;2022-10-16T10:13:42;2.83;;;1.30;;
9712;SDS011;4895;50.926;6.870;2022-10-16T10:16:07;2.03;;;0.90;;
9712;SDS011;4895;50.926;6.870;2022-10-16T10:18:32;2.50;;;0.80;;
9712;SDS011;4895;50.926;6.870;2022-10-16T10:20:59;3.00;;;1.30;;
9712;SDS011;4895;50.926;6.870;2022-10-16T10:23:25;1.20;;;0.70;;
9712;SDS011;4895;50.926;6.870;2022-10-16T10:26:00;1.47;;;0.80;;
9712;SDS011;4895;50.926;6.870;2022-10-16T10:31:21;3.67;;;0.80;;
9712;SDS011;4895;50.926;6.870;2022-10-16T10:39:15;3.63;;;0.90;;
9712;SDS011;4895;50.926;6.870;2022-10-16T10:45:03;1.53;;;0.90;;
9712;SDS011;4895;50.926;6.870;2022-10-16T10:50:30;1.30;;;0.70;;
9712;SDS011;4895;50.926;6.870;2022-10-16T10:53:10;6.53;;;1.00;;
9712;SDS011;4895;50.926;6.870;2022-10-16T10:55:43;1.87;;;0.90;;
9712;SDS011;4895;50.926;6.870;2022-10-16T10:58:32;1.40;;;0.73;;
9712;SDS011;4895;50.926;6.870;2022-10-16T11:01:22;3.30;;;0.93;;
9712;SDS011;4895;50.926;6.870;2022-10-16T11:04:11;2.73;;;0.93;;
9712;SDS011;4895;50.926;6.870;2022-10-16T11:07:05;2.67;;;0.90;;
9712;SDS011;4895;50.926;6.870;2022-10-16T11:12:05;2.03;;;0.90;;
9712;SDS011;4895;50.926;6.870;2022-10-16T11:14:38;2.20;;;1.10;;
9712;SDS011;4895;50.926;6.870;2022-10-16T11:17:10;3.10;;;1.30;;
9712;SDS011;4895;50.926;6.870;2022-10-16T11:30:13;2.17;;;1.10;;
9712;SDS011;4895;50.926;6.870;2022-10-16T11:35:44;1.47;;;0.70;;
9712;SDS011;4895;50.926;6.870;2022-10-16T11:38:20;2.07;;;0.80;;
9712;SDS011;4895;50.926;6.870;2022-10-16T11:40:53;2.00;;;0.90;;
9712;SDS011;4895;50.926;6.870;2022-10-16T11:43:24;3.13;;;1.07;;
9712;SDS011;4895;50.926;6.870;2022-10-16T11:45:54;2.33;;;1.00;;
9712;SDS011;4895;50.926;6.870;2022-10-16T11:51:17;5.00;;;0.80;;
9712;SDS011;4895;50.926;6.870;2022-10-16T11:54:04;2.17;;;0.80;;
9712;SDS011;4895;50.926;6.870;2022-10-16T11:56:52;1.53;;;1.00;;
9712;SDS011;4895;50.926;6.870;2022-10-16T12:02:30;1.63;;;0.80;;
9712;SDS011;4895;50.926;6.870;2022-10-16T12:07:53;3.13;;;0.90;;
9712;SDS011;4895;50.926;6.870;2022-10-16T12:10:28;2.57;;;0.83;;
9712;SDS011;4895;50.926;6.870;2022-10-16T12:12:54;4.50;;;1.20;;
9712;SDS011;4895;50.926;6.870;2022-10-16T12:15:21;3.80;;;1.23;;
9712;SDS011;4895;50.926;6.870;2022-10-16T12:17:50;2.37;;;0.97;;
9712;SDS011;4895;50.926;6.870;2022-10-16T12:22:47;2.23;;;0.97;;
9712;SDS011;4895;50.926;6.870;2022-10-16T12:25:32;2.30;;;0.70;;
9712;SDS011;4895;50.926;6.870;2022-10-16T12:28:05;1.73;;;0.80;;
9712;SDS011;4895;50.926;6.870;2022-10-16T12:30:40;1.40;;;0.80;;
9712;SDS011;4895;50.926;6.870;2022-10-16T12:33:20;2.50;;;0.87;;
9712;SDS011;4895;50.926;6.870;2022-10-16T12:35:47;3.63;;;1.10;;
9712;SDS011;4895;50.926;6.870;2022-10-16T12:38:22;2.80;;;0.80;;
9712;SDS011;4895;50.926;6.870;2022-10-16T12:40:58;1.37;;;0.80;;
9712;SDS011;4895;50.926;6.870;2022-10-16T12:46:00;3.00;;;0.87;;
9712;SDS011;4895;50.926;6.870;2022-10-16T12:48:30;1.10;;;0.70;;
9712;SDS011;4895;50.926;6.870;2022-10-16T12:50:56;2.07;;;0.90;;
9712;SDS011;4895;50.926;6.870;2022-10-16T12:53:22;3.20;;;1.00;;
9712;SDS011;4895;50.926;6.870;2022-10-16T12:58:57;2.17;;;0.70;;
9712;SDS011;4895;50.926;6.870;2022-10-16T13:01:42;2.27;;;0.77;;
9712;SDS011;4895;50.926;6.870;2022-10-16T13:10:18;3.50;;;0.80;;
9712;SDS011;4895;50.926;6.870;2022-10-16T13:13:13;1.80;;;0.87;;
9712;SDS011;4895;50.926;6.870;2022-10-16T13:15:47;1.83;;;0.93;;
9712;SDS011;4895;50.926;6.870;2022-10-16T13:29:32;2.30;;;0.80;;
9712;SDS011;4895;50.926;6.870;2022-10-16T13:31:58;4.40;;;1.00;;
9712;SDS011;4895;50.926;6.870;2022-10-16T13:34:24;2.97;;;0.77;;
9712;SDS011;4895;50.926;6.870;2022-10-16T13:36:50;1.37;;;0.80;;
9712;SDS011;4895;50.926;6.870;2022-10-16T13:42:25;2.60;;;0.83;;
9712;SDS011;4895;50.926;6.870;2022-10-16T13:44:51;3.47;;;1.20;;
9712;SDS011;4895;50.926;6.870;2022-10-16T13:49:43;1.80;;;0.90;;
9712;SDS011;4895;50.926;6.870;2022-10-16T13:52:19;1.47;;;0.77;;
9712;SDS011;4895;50.926;6.870;2022-10-16T13:54:45;4.90;;;1.43;;
9712;SDS011;4895;50.926;6.870;2022-10-16T13:57:16;4.23;;;1.23;;
9712;SDS011;4895;50.926;6.870;2022-10-16T13:59:42;2.87;;;0.97;;
9712;SDS011;4895;50.926;6.870;2022-10-16T14:04:42;3.17;;;0.97;;
9712;SDS011;4895;50.926;6.870;2022-10-16T14:07:13;1.93;;;0.87;;
9712;SDS011;4895;50.926;6.870;2022-10-16T14:09:40;2.20;;;0.90;;
9712;SDS011;4895;50.926;6.870;2022-10-16T14:12:09;2.20;;;1.00;;
9712;SDS011;4895;50.926;6.870;2022-10-16T14:14:52;1.30;;;0.80;;
9712;SDS011;4895;50.926;6.870;2022-10-16T14:17:19;1.93;;;1.00;;
9712;SDS011;4895;50.926;6.870;2022-10-16T14:19:47;3.00;;;1.00;;
9712;SDS011;4895;50.926;6.870;2022-10-16T14:30:34;1.80;;;0.87;;
9712;SDS011;4895;50.926;6.870;2022-10-16T14:33:02;2.37;;;1.00;;
9712;SDS011;4895;50.926;6.870;2022-10-16T14:37:59;5.03;;;0.90;;
9712;SDS011;4895;50.926;6.870;2022-10-16T14:40:47;2.47;;;0.90;;
9712;SDS011;4895;50.926;6.870;2022-10-16T14:43:14;2.00;;;1.10;;
9712;SDS011;4895;50.926;6.870;2022-10-16T14:45:51;1.77;;;0.90;;
9712;SDS011;4895;50.926;6.870;2022-10-16T14:48:18;3.40;;;0.90;;
9712;SDS011;4895;50.926;6.870;2022-10-16T14:50:44;5.90;;;1.63;;
9712;SDS011;4895;50.926;6.870;2022-10-16T14:53:11;3.10;;;1.03;;
9712;SDS011;4895;50.926;6.870;2022-10-16T14:55:37;2.47;;;0.87;;
9712;SDS011;4895;50.926;6.870;2022-10-16T14:58:02;9.03;;;1.10;;
9712;SDS011;4895;50.926;6.870;2022-10-16T15:00:28;1.40;;;0.80;;
9712;SDS011;4895;50.926;6.870;2022-10-16T15:02:53;2.30;;;1.00;;
9712;SDS011;4895;50.926;6.870;2022-10-16T15:05:20;22.13;;;1.30;;
9712;SDS011;4895;50.926;6.870;2022-10-16T15:07:47;2.80;;;1.00;;
9712;SDS011;4895;50.926;6.870;2022-10-16T15:10:14;1.20;;;0.70;;
9712;SDS011;4895;50.926;6.870;2022-10-16T15:12:40;1.53;;;1.00;;
9712;SDS011;4895;50.926;6.870;2022-10-16T15:15:48;2.43;;;1.20;;
9712;SDS011;4895;50.926;6.870;2022-10-16T15:17:58;3.97;;;1.10;;
9712;SDS011;4895;50.926;6.870;2022-10-16T15:20:29;2.90;;;1.23;;
9712;SDS011;4895;50.926;6.870;2022-10-16T15:22:58;2.77;;;1.50;;
9712;SDS011;4895;50.926;6.870;2022-10-16T15:25:32;3.60;;;0.93;;
9712;SDS011;4895;50.926;6.870;2022-10-16T15:27:59;2.10;;;1.00;;
9712;SDS011;4895;50.926;6.870;2022-10-16T15:30:26;3.20;;;1.00;;
9712;SDS011;4895;50.926;6.870;2022-10-16T15:32:52;4.00;;;1.00;;
9712;SDS011;4895;50.926;6.870;2022-10-16T15:35:17;5.00;;;1.60;;
9712;SDS011;4895;50.926;6.870;2022-10-16T15:37:43;5.03;;;1.73;;
9712;SDS011;4895;50.926;6.870;2022-10-16T15:40:09;3.63;;;1.40;;
9712;SDS011;4895;50.926;6.870;2022-10-16T15:42:35;2.33;;;1.37;;
9712;SDS011;4895;50.926;6.870;2022-10-16T15:45:00;4.80;;;1.63;;
9712;SDS011;4895;50.926;6.870;2022-10-16T15:47:26;1.37;;;1.00;;
9712;SDS011;4895;50.926;6.870;2022-10-16T15:49:51;4.00;;;1.10;;
9712;SDS011;4895;50.926;6.870;2022-10-16T15:52:16;2.33;;;0.90;;
9712;SDS011;4895;50.926;6.870;2022-10-16T15:54:42;12.70;;;1.00;;
9712;SDS011;4895;50.926;6.870;2022-10-16T15:57:08;1.30;;;0.83;;
9712;SDS011;4895;50.926;6.870;2022-10-16T15:59:33;2.77;;;1.73;;
9712;SDS011;4895;50.926;6.870;2022-10-16T16:01:58;4.43;;;1.13;;
9712;SDS011;4895;50.926;6.870;2022-10-16T16:04:23;2.40;;;1.00;;
9712;SDS011;4895;50.926;6.870;2022-10-16T16:06:49;2.60;;;1.30;;
9712;SDS011;4895;50.926;6.870;2022-10-16T16:09:14;3.27;;;1.40;;
9712;SDS011;4895;50.926;6.870;2022-10-16T16:11:40;2.37;;;0.90;;
9712;SDS011;4895;50.926;6.870;2022-10-16T16:14:06;2.77;;;1.03;;
9712;SDS011;4895;50.926;6.870;2022-10-16T16:16:32;2.00;;;1.10;;
9712;SDS011;4895;50.926;6.870;2022-10-16T16:19:02;1.47;;;1.00;;
9712;SDS011;4895;50.926;6.870;2022-10-16T16:21:28;2.47;;;0.90;;
9712;SDS011;4895;50.926;6.870;2022-10-16T16:23:53;3.13;;;1.10;;
9712;SDS011;4895;50.926;6.870;2022-10-16T16:28:51;1.97;;;1.00;;
9712;SDS011;4895;50.926;6.870;2022-10-16T16:31:16;2.00;;;1.20;;
9712;SDS011;4895;50.926;6.870;2022-10-16T16:33:42;2.90;;;1.10;;
9712;SDS011;4895;50.926;6.870;2022-10-16T16:36:07;2.77;;;1.10;;
9712;SDS011;4895;50.926;6.870;2022-10-16T16:38:33;2.53;;;1.13;;
9712;SDS011;4895;50.926;6.870;2022-10-16T16:40:58;2.47;;;1.00;;
9712;SDS011;4895;50.926;6.870;2022-10-16T16:43:24;2.33;;;1.20;;
9712;SDS011;4895;50.926;6.870;2022-10-16T16:45:50;1.50;;;0.80;;
9712;SDS011;4895;50.926;6.870;2022-10-16T16:48:16;1.80;;;1.17;;
9712;SDS011;4895;50.926;6.870;2022-10-16T16:50:41;1.50;;;1.00;;
9712;SDS011;4895;50.926;6.870;2022-10-16T16:53:06;2.40;;;1.20;;
9712;SDS011;4895;50.926;6.870;2022-10-16T16:55:32;2.57;;;1.30;;
9712;SDS011;4895;50.926;6.870;2022-10-16T16:57:58;2.60;;;1.20;;
9712;SDS011;4895;50.926;6.870;2022-10-16T17:00:23;1.70;;;1.00;;
9712;SDS011;4895;50.926;6.870;2022-10-16T17:02:49;2.37;;;1.23;;
9712;SDS011;4895;50.926;6.870;2022-10-16T17:05:15;1.50;;;0.90;;
9712;SDS011;4895;50.926;6.870;2022-10-16T17:07:40;3.37;;;1.37;;
9712;SDS011;4895;50.926;6.870;2022-10-16T17:10:06;4.10;;;1.23;;
9712;SDS011;4895;50.926;6.870;2022-10-16T17:12:32;7.10;;;1.00;;
9712;SDS011;4895;50.926;6.870;2022-10-16T17:14:57;1.40;;;1.10;;